Date,TemperatureHighF,TemperatureAvgF,TemperatureLowF,DewpointHighF,DewpointAvgF,DewpointLowF,HumidityHigh,HumidityAvg,HumidityLow,PressureMaxIn,PressureMinIn,WindSpeedMaxMPH,WindSpeedAvgMPH,GustSpeedMaxMPH,PrecipitationSumIn
2013-1-1,47.5,43.3,38.5,44.1,38.3,29.2,94,83,69,30.07,29.95,8,1,12,0.24
2013-1-2,43.9,38.5,35.8,42.3,34.0,27.6,100,84,70,30.09,29.92,7,1,11,0.04
2013-1-3,41.8,33.7,25.2,37.0,29.6,17.4,100,86,69,30.18,30.01,5,0,8,0.00
2013-1-4,44.8,29.5,23.2,34.9,21.2,15.5,72,71,68,30.24,30.12,9,2,17,0.00
2013-1-5,47.8,34.7,24.3,37.4,25.9,16.5,72,70,67,30.27,30.12,12,4,18,0.00
2013-1-6,53.3,38.9,31.1,42.6,30.8,22.8,90,73,67,30.12,30.01,8,2,12,0.00
2013-1-7,50.5,35.4,26.2,39.9,26.5,18.4,72,70,67,30.33,30.09,10,3,17,0.00
2013-1-8,52.7,37.0,29.1,42.0,28.1,20.9,74,70,67,30.36,30.27,6,0,8,0.00
2013-1-9,56.1,49.3,37.9,51.5,43.7,31.1,100,81,66,30.45,30.30,5,0,6,0.00
2013-1-10,54.1,51.9,45.5,52.1,47.8,35.5,95,86,67,30.48,30.33,7,2,9,0.00
2013-1-11,57.7,48.1,42.4,57.7,47.2,34.0,100,97,68,30.33,30.15,5,0,8,0.31
2013-1-12,68.5,59.7,56.2,60.3,57.2,53.2,100,92,69,30.21,30.12,6,0,11,0.00
2013-1-13,64.4,58.2,54.5,57.2,54.1,49.5,100,87,67,30.15,30.07,8,2,13,0.00
2013-1-14,59.0,56.6,46.6,59.0,56.0,44.1,100,98,90,30.15,30.09,8,1,13,2.01
2013-1-15,54.9,47.3,42.2,52.8,46.7,42.2,100,98,89,30.15,30.01,5,0,6,1.26
2013-1-16,59.4,50.2,43.5,54.6,48.2,43.5,100,93,73,30.03,29.98,3,0,8,0.24
2013-1-17,50.7,42.6,31.3,48.0,40.8,26.8,100,93,84,30.12,29.86,7,1,11,1.65
2013-1-18,46.0,32.1,23.9,36.1,23.7,16.2,79,71,68,30.39,30.12,5,0,10,0.12
2013-1-19,51.8,36.8,26.1,41.2,27.8,18.3,72,70,66,30.36,30.09,6,1,8,0.00
2013-1-20,58.8,42.1,34.0,47.5,32.6,25.2,70,69,66,30.09,30.03,9,2,17,0.00
2013-1-21,52.1,37.4,24.6,41.1,28.3,16.9,72,69,66,30.07,29.86,6,3,12,0.00
2013-1-22,35.6,23.1,15.3,26.8,15.6,8.5,74,72,70,30.09,29.86,6,2,11,0.00
2013-1-23,43.5,29.4,18.5,33.4,21.2,11.3,73,71,68,30.18,29.95,6,2,13,0.00
2013-1-24,39.0,28.7,17.2,29.7,20.6,10.2,74,71,69,30.27,29.83,8,3,16,0.00
2013-1-25,35.2,21.0,14.5,35.1,15.7,7.8,100,80,72,30.30,29.95,7,3,12,0.00
2013-1-26,44.9,32.9,27.7,34.9,25.8,19.5,100,75,68,30.24,29.98,7,1,9,0.04
2013-1-27,35.1,28.2,23.5,26.1,20.1,15.8,72,71,70,30.39,30.24,5,1,6,0.00
2013-1-28,57.2,43.9,29.5,45.9,34.7,21.2,92,70,66,30.33,30.21,5,1,8,0.00
2013-1-29,67.8,57.0,48.4,56.0,48.1,38.3,100,73,66,30.21,30.07,6,2,11,0.00
2013-1-30,58.8,55.5,43.7,58.8,55.5,43.7,100,100,100,30.07,29.53,12,4,28,3.66
2013-1-31,43.5,30.5,26.1,43.5,23.4,18.3,100,75,70,29.92,29.53,8,0,15,0.04
2013-2-1,34.3,24.4,17.1,26.1,16.9,10.2,82,73,70,30.18,29.83,8,2,20,0.00
2013-2-2,33.8,25.9,17.4,28.4,18.5,10.5,91,73,70,30.18,29.95,8,1,12,0.00
2013-2-3,41.9,29.7,22.6,32.5,21.9,15.3,91,73,69,29.95,29.80,9,2,17,0.04
2013-2-4,47.5,32.7,20.8,37.1,24.2,13.5,73,71,67,30.03,29.89,7,2,11,0.00
2013-2-5,53.9,42.0,37.6,43.2,32.4,28.3,69,69,67,29.98,29.89,6,2,12,0.00
2013-2-6,59.0,43.5,31.6,47.7,33.8,23.3,71,68,66,30.21,29.95,6,2,10,0.00
2013-2-7,39.9,37.8,34.9,39.9,31.8,26.1,100,80,69,30.21,29.98,5,0,8,0.67
2013-2-8,50.0,40.0,28.8,47.8,36.7,20.5,100,89,67,29.98,29.89,6,1,15,0.00
2013-2-9,55.9,36.8,24.4,44.7,27.8,16.7,72,70,66,30.27,29.95,7,2,17,0.00
2013-2-10,48.2,37.8,33.3,39.7,29.9,24.9,100,73,67,30.33,30.12,10,4,15,0.20
2013-2-11,55.8,46.3,40.1,55.5,42.7,31.1,100,88,67,30.12,29.98,6,1,15,0.08
2013-2-12,56.6,41.1,33.6,45.1,31.6,25.0,71,69,66,30.07,29.92,8,2,18,0.04
2013-2-13,40.6,36.5,31.1,40.6,34.2,23.1,100,92,71,29.92,29.65,7,2,10,0.16
2013-2-14,50.9,36.1,26.1,40.3,27.3,18.3,77,70,67,30.01,29.83,6,1,9,0.00
2013-2-15,57.7,40.2,30.7,46.5,31.3,23.4,81,71,66,30.03,29.92,6,1,15,0.00
2013-2-16,33.8,27.0,18.1,25.2,19.1,10.9,74,72,70,29.95,29.74,0,0,0,0.00
2013-2-17,35.2,22.8,13.6,26.4,15.3,7.2,75,73,70,30.18,29.83,6,0,17,0.00
2013-2-18,49.3,33.7,21.4,38.8,25.0,14.1,73,70,67,30.30,30.15,8,3,13,0.00
2013-2-19,49.6,35.3,26.2,42.1,28.8,18.4,100,77,67,30.15,29.92,8,2,15,0.04
2013-2-20,50.0,31.8,22.1,39.5,23.3,14.8,73,71,67,30.12,29.98,9,3,15,0.00
2013-2-21,57.4,39.6,25.7,46.1,30.2,17.9,72,69,66,30.18,30.01,10,4,13,0.16
2013-2-22,35.1,33.6,32.0,35.1,32.9,25.6,100,98,70,30.18,30.01,5,0,6,0.16
2013-2-23,49.6,45.2,34.3,46.7,41.8,32.8,100,88,69,30.03,29.86,9,1,12,0.24
2013-2-24,57.2,41.5,32.7,45.9,33.0,25.0,85,72,66,30.01,29.86,7,1,12,0.00
2013-2-25,41.5,33.5,28.9,32.1,24.9,20.7,71,70,69,30.09,29.98,9,4,12,0.00
2013-2-26,36.3,32.5,27.9,36.3,31.9,20.0,100,98,71,30.01,29.59,6,1,12,0.08
2013-2-27,50.9,40.6,32.5,40.7,31.4,24.2,74,69,67,29.77,29.71,6,2,10,0.12
2013-2-28,36.1,30.4,27.0,27.3,22.1,18.8,72,71,70,29.83,29.65,5,0,9,0.00
2013-3-1,38.6,29.9,26.2,29.3,22.1,18.8,78,73,69,29.86,29.77,7,0,10,0.00
2013-3-2,41.8,29.7,21.7,32.4,21.7,14.4,75,72,69,29.86,29.80,10,2,17,0.00
2013-3-3,34.9,23.3,16.5,26.1,15.8,9.7,74,72,70,29.86,29.77,9,5,20,0.00
2013-3-4,50.2,32.7,18.5,39.6,24.1,11.3,73,70,67,30.03,29.86,8,2,15,0.00
2013-3-5,40.5,37.7,29.8,40.5,32.7,22.6,100,83,69,30.03,29.56,13,1,20,0.94
2013-3-6,36.3,26.0,21.0,27.5,20.2,14.6,93,79,70,30.01,29.56,9,4,19,0.04
2013-3-7,38.4,27.8,22.8,29.1,21.2,16.2,92,76,69,30.15,30.01,12,5,24,0.08
2013-3-8,47.3,32.7,22.1,36.9,24.2,14.8,73,71,67,30.24,30.12,10,4,16,0.00
2013-3-9,58.1,43.7,33.1,46.8,33.9,24.7,71,68,66,30.27,30.21,7,2,9,0.00
2013-3-10,59.9,47.0,37.6,48.5,36.9,28.3,69,68,66,30.24,30.15,8,4,14,0.00
2013-3-11,49.1,43.8,40.6,49.1,41.0,32.1,100,91,68,30.18,29.89,8,3,13,0.47
2013-3-12,51.4,43.6,33.6,48.9,38.3,25.0,100,83,67,30.01,29.80,8,2,15,0.51
2013-3-13,45.5,33.2,23.5,35.5,24.6,15.7,72,70,68,30.03,29.98,9,2,17,0.00
2013-3-14,46.8,30.4,19.0,36.4,22.1,11.8,73,71,67,30.18,30.01,9,2,15,0.00
2013-3-15,64.4,43.9,27.7,53.2,34.2,19.5,71,68,65,30.12,29.95,6,1,12,0.00
2013-3-16,73.2,59.3,50.5,60.7,48.1,40.0,68,66,65,29.95,29.80,7,2,15,0.00
2013-3-17,70.1,54.9,39.4,58.2,45.1,38.0,95,70,65,30.07,29.95,7,3,12,0.00
2013-3-18,41.7,36.2,32.7,41.7,36.2,32.7,100,100,100,30.07,29.86,5,1,8,0.67
2013-3-19,56.8,44.1,32.5,45.9,37.0,24.2,100,77,66,30.03,29.86,6,1,12,0.00
2013-3-20,54.0,37.4,26.4,43.2,28.3,18.6,72,69,66,30.03,29.80,6,1,16,0.00
2013-3-21,37.2,25.9,16.0,28.3,18.1,9.2,74,72,70,29.89,29.71,7,2,12,0.00
2013-3-22,47.9,31.2,18.9,37.4,22.8,11.6,73,71,67,29.98,29.86,7,1,11,0.00
2013-3-23,51.3,41.2,34.3,41.1,31.8,25.6,77,69,67,30.01,29.89,6,0,8,0.00
2013-3-24,39.7,36.4,33.1,38.7,35.1,30.9,100,95,72,29.92,29.53,6,2,11,0.59
2013-3-25,34.7,28.9,23.5,33.4,24.3,17.1,100,83,70,29.80,29.53,0,0,0,0.00
2013-3-26,38.1,27.8,22.6,28.8,20.7,15.6,91,75,69,30.07,29.74,7,0,13,0.12
2013-3-27,40.8,30.4,24.3,31.4,22.1,16.5,72,71,69,30.18,30.03,6,1,13,0.00
2013-3-28,49.1,34.5,24.7,38.4,25.7,17.0,72,70,67,30.24,30.12,6,2,13,0.00
2013-3-29,57.6,38.8,28.9,46.3,29.7,20.7,73,70,66,30.27,30.18,6,1,15,0.00
2013-3-30,56.7,45.0,36.7,45.4,37.3,29.2,89,75,66,30.18,30.07,6,1,10,0.00
2013-3-31,59.8,48.7,42.4,53.1,43.5,35.4,100,83,66,30.07,29.89,6,0,11,0.35
2013-4-1,61.5,47.3,37.6,49.6,39.5,30.6,93,75,65,29.98,29.89,6,1,12,0.04
2013-4-2,55.8,41.8,30.2,44.6,32.3,21.9,71,69,66,30.12,29.98,6,1,13,0.00
2013-4-3,56.1,42.9,30.6,44.9,33.2,22.1,71,69,66,30.24,30.09,8,2,13,0.00
2013-4-4,41.0,34.7,30.7,34.0,28.6,23.0,100,79,69,30.24,29.95,5,1,8,0.12
2013-4-5,56.9,42.4,34.0,45.7,36.4,30.4,100,80,66,30.09,29.89,6,1,13,0.08
2013-4-6,63.0,48.8,37.9,51.0,38.4,28.7,69,67,65,30.21,30.07,9,3,14,0.00
2013-4-7,65.7,51.4,39.4,54.4,41.0,30.1,69,67,65,30.21,30.12,8,2,13,0.00
2013-4-8,73.4,59.1,48.6,60.9,48.0,38.1,68,67,65,30.18,30.09,8,2,13,0.00
2013-4-9,77.9,63.7,54.1,66.1,52.3,43.4,68,66,65,30.24,30.15,8,3,15,0.00
2013-4-10,80.9,66.6,56.1,68.4,55.0,45.4,74,66,65,30.18,30.03,8,3,13,0.00
2013-4-11,74.5,63.2,54.9,62.8,53.3,45.1,100,71,65,30.07,29.83,9,4,15,0.28
2013-4-12,71.4,58.7,44.8,61.3,52.0,34.9,100,80,65,29.92,29.74,8,2,15,1.02
2013-4-13,69.6,53.7,41.7,57.8,43.0,32.3,69,67,65,30.07,29.83,7,2,14,0.00
2013-4-14,66.6,55.9,47.3,54.8,45.3,36.9,86,68,65,30.12,30.03,9,4,17,0.00
2013-4-15,54.0,51.2,48.6,54.0,51.0,44.9,100,99,83,30.24,30.03,6,1,11,0.28
2013-4-16,73.4,59.6,51.6,62.0,53.8,48.1,100,83,65,30.33,30.24,7,2,11,0.00
2013-4-17,66.9,59.6,55.8,60.6,54.0,48.8,92,82,69,30.33,30.18,6,1,13,0.39
2013-4-18,66.9,59.8,56.3,59.7,54.7,51.0,100,84,66,30.21,30.03,10,3,17,0.04
2013-4-19,61.0,56.4,39.0,61.0,55.9,30.3,100,98,70,30.03,29.80,9,4,16,1.02
2013-4-20,58.1,42.7,31.1,46.8,33.1,22.8,74,69,66,30.27,29.89,7,2,13,0.00
2013-4-21,57.7,45.3,36.9,46.5,35.3,28.0,70,68,66,30.42,30.24,8,3,13,0.00
2013-4-22,60.0,46.3,38.8,48.6,36.3,29.5,70,68,66,30.39,30.21,7,2,11,0.00
2013-4-23,67.1,50.8,37.6,55.4,40.4,28.3,69,68,65,30.27,30.12,7,2,12,0.00
2013-4-24,69.3,56.0,47.3,57.4,46.2,37.6,84,70,66,30.15,30.03,6,1,12,0.04
2013-4-25,67.3,50.2,36.5,55.5,41.1,28.0,87,71,65,30.30,30.07,7,1,12,0.00
2013-4-26,63.5,51.6,41.2,52.3,41.0,31.8,69,67,65,30.39,30.27,7,2,13,0.00
2013-4-27,54.3,49.7,47.8,48.9,42.3,37.8,100,77,67,30.39,30.24,6,1,12,0.28
2013-4-28,50.7,48.7,46.4,50.7,48.7,46.4,100,100,100,30.24,30.03,7,1,11,1.06
2013-4-29,66.3,56.1,50.0,56.8,51.6,49.3,100,86,66,30.09,30.01,7,1,10,0.04
2013-4-30,68.9,58.8,54.9,57.2,53.3,50.0,100,83,66,30.21,30.03,6,2,10,0.00
2013-5-1,57.6,53.9,51.1,53.2,49.9,46.1,100,87,68,30.33,30.21,6,2,13,0.00
2013-5-2,54.0,51.8,49.6,54.0,51.8,49.6,100,100,100,30.33,30.24,6,1,10,0.43
2013-5-3,53.6,50.1,47.7,52.9,47.9,43.3,100,93,75,30.27,30.12,7,3,13,0.12
2013-5-4,49.2,44.7,40.6,46.8,42.9,35.3,100,94,74,30.15,30.01,10,4,15,0.20
2013-5-5,50.5,45.7,43.2,50.5,45.7,43.2,100,100,100,30.07,29.86,9,4,20,3.58
2013-5-6,60.5,51.5,45.7,57.4,47.6,37.6,100,88,66,29.95,29.86,9,4,16,1.46
2013-5-7,62.9,49.3,44.8,51.7,44.2,39.7,93,83,65,29.98,29.92,6,0,11,0.31
2013-5-8,63.5,52.9,46.8,53.7,49.6,46.1,100,89,67,30.09,29.95,3,0,8,0.12
2013-5-9,72.1,59.3,48.2,59.7,52.1,45.9,100,79,65,30.18,30.07,6,0,8,0.00
2013-5-10,73.0,62.7,55.9,61.8,51.6,44.9,69,67,65,30.18,30.03,7,2,13,0.00
2013-5-11,66.2,59.4,53.4,58.9,51.2,46.5,88,75,67,30.07,29.92,5,0,9,0.04
2013-5-12,62.6,51.7,43.0,51.5,43.2,33.1,88,73,65,30.09,29.92,7,2,15,0.00
2013-5-13,60.8,47.0,37.0,49.2,36.9,28.2,70,68,65,30.24,30.09,6,1,13,0.00
2013-5-14,66.7,52.3,39.9,55.0,41.7,30.6,69,67,65,30.30,30.12,8,1,10,0.00
2013-5-15,82.5,67.0,54.0,69.7,55.6,43.2,69,67,65,30.15,30.07,7,2,13,0.00
2013-5-16,74.5,64.0,57.6,62.8,52.4,46.3,68,66,65,30.12,30.03,6,1,11,0.00
2013-5-17,74.8,64.7,56.8,63.1,53.3,45.6,70,67,65,30.18,30.09,7,2,11,0.00
2013-5-18,61.9,60.5,58.5,61.9,57.1,49.7,100,89,68,30.21,30.12,5,0,10,0.75
2013-5-19,67.5,62.5,61.0,67.5,62.5,61.0,100,100,100,30.18,30.09,5,0,7,2.24
2013-5-20,69.8,64.9,60.8,65.2,62.5,60.8,100,92,81,30.18,30.12,3,0,6,0.00
2013-5-21,75.6,67.0,61.3,65.8,60.8,55.6,94,81,67,30.15,30.07,5,0,8,0.00
2013-5-22,73.0,63.3,57.2,65.4,59.2,52.7,94,87,69,30.12,30.01,6,0,11,1.46
2013-5-23,72.1,63.1,55.6,63.6,56.8,49.7,95,81,66,30.07,29.95,5,0,8,0.04
2013-5-24,60.4,53.6,44.9,50.9,45.6,35.0,92,75,66,30.24,29.92,6,1,13,0.00
2013-5-25,67.9,53.2,43.3,56.1,42.5,33.5,68,67,65,30.30,30.18,6,2,13,0.00
2013-5-26,68.0,57.0,49.6,56.2,46.0,39.1,74,67,65,30.30,30.21,5,0,9,0.00
2013-5-27,70.7,60.5,53.1,58.8,49.5,42.4,72,67,66,30.30,30.21,6,1,9,0.00
2013-5-28,72.9,64.8,58.3,61.7,55.1,49.6,78,71,66,30.30,30.21,7,1,12,0.00
2013-5-29,75.6,65.8,58.3,63.8,57.2,52.7,87,74,66,30.30,30.21,7,1,12,0.00
2013-5-30,72.3,64.9,58.8,61.6,56.8,52.0,89,75,66,30.36,30.27,6,1,10,0.00
2013-5-31,72.9,65.8,60.6,61.7,57.3,53.7,85,74,68,30.30,30.21,8,1,13,0.00
2013-6-1,72.1,65.8,61.7,64.4,58.3,54.0,89,77,66,30.24,30.12,7,1,13,0.00
2013-6-2,67.1,64.1,62.2,64.5,60.6,55.3,93,88,72,30.15,30.03,6,0,8,0.28
2013-6-3,74.7,65.2,60.6,63.6,59.1,53.4,94,82,66,30.09,29.98,6,0,8,0.00
2013-6-4,69.4,63.2,58.8,59.3,56.7,54.2,87,80,69,30.18,30.09,5,1,9,0.00
2013-6-5,66.6,63.3,61.0,62.6,60.3,56.1,94,90,84,30.21,30.09,5,1,9,0.20
2013-6-6,68.4,64.9,62.2,68.4,64.1,60.5,100,97,93,30.12,29.92,5,0,8,0.35
2013-6-7,71.4,65.1,60.1,69.1,63.4,57.1,100,95,81,29.98,29.83,3,0,9,0.63
2013-6-8,70.0,64.2,57.9,65.0,60.5,55.9,94,88,74,30.21,29.95,5,0,6,0.24
2013-6-9,70.8,65.5,61.5,66.8,61.9,54.6,100,89,73,30.27,30.15,8,1,17,1.10
2013-6-10,69.6,66.0,62.2,69.6,65.5,60.5,100,98,93,30.15,30.03,7,0,12,0.83
2013-6-11,72.1,65.0,59.9,62.5,59.6,57.4,94,83,68,30.12,30.07,3,0,12,0.08
2013-6-12,79.6,70.2,62.6,72.1,63.5,58.0,89,80,69,30.15,30.09,3,0,10,0.00
2013-6-13,79.0,68.5,63.0,66.7,61.5,56.1,93,79,66,30.09,29.92,7,1,15,0.67
2013-6-14,69.9,63.9,57.2,60.7,53.8,48.4,93,70,66,29.92,29.92,3,0,8,0.00
2013-6-15,72.4,63.0,55.0,61.2,54.6,46.0,84,74,66,29.92,29.92,3,0,8,0.00
2013-6-16,72.5,65.9,60.4,64.4,60.0,55.9,87,82,70,29.92,29.92,3,0,6,0.00
2013-6-17,72.8,66.8,61.5,66.4,62.8,59.2,93,87,74,29.92,29.92,5,0,8,0.08
2013-6-18,70.2,66.0,61.2,68.4,63.7,58.2,94,93,90,29.92,29.92,6,0,8,0.08
2013-6-19,69.6,64.0,59.2,61.2,58.7,56.9,93,83,71,29.92,29.92,5,0,8,0.00
2013-6-20,69.4,64.9,61.9,63.5,60.2,58.2,93,85,71,29.92,29.92,5,1,9,0.00
2013-6-21,72.5,65.9,62.1,62.4,59.6,56.6,92,81,68,29.92,29.92,5,0,8,0.00
2013-6-22,73.9,65.0,58.1,62.3,57.1,52.5,87,76,66,29.92,29.92,5,0,8,0.00
2013-6-23,74.3,65.4,61.7,65.7,59.7,54.5,90,82,68,29.92,29.92,5,0,8,0.00
2013-6-24,74.7,67.4,63.0,67.4,63.1,60.1,92,86,71,29.92,29.92,3,0,6,0.08
2013-6-25,76.3,68.1,63.1,66.7,63.7,60.8,93,86,69,29.92,29.92,3,0,8,0.28
2013-6-26,77.9,69.0,63.1,68.9,64.4,59.8,93,86,72,29.92,29.92,3,0,6,0.00
2013-6-27,75.0,68.4,61.9,68.6,63.2,57.6,88,84,76,29.98,29.89,5,0,10,0.00
2013-6-28,78.8,68.9,61.7,67.6,63.1,58.7,92,82,66,29.95,29.77,5,0,12,0.28
2013-6-29,73.2,65.7,61.5,63.7,59.1,52.5,93,80,67,29.86,29.77,3,0,10,0.00
2013-6-30,73.8,65.7,60.8,63.4,58.2,52.0,93,77,67,29.95,29.83,6,0,13,0.12
2013-7-1,69.1,66.1,64.0,67.0,64.2,62.3,95,94,88,30.07,29.92,6,1,10,2.52
2013-7-2,70.5,66.5,63.9,68.7,65.3,62.1,100,96,93,30.21,30.07,6,1,13,1.26
2013-7-3,69.4,66.6,61.3,69.4,66.6,61.3,100,100,100,30.30,30.18,7,1,11,3.27
2013-7-4,69.1,65.1,61.5,69.1,65.1,61.5,100,100,100,30.30,30.24,5,0,12,1.73
2013-7-5,72.0,67.2,65.1,71.8,66.9,64.3,100,99,86,30.33,30.27,6,1,9,0.39
2013-7-6,71.1,68.0,66.6,71.1,67.8,66.2,100,99,94,30.30,30.21,6,1,14,1.02
2013-7-7,73.9,69.0,66.9,73.4,67.9,64.5,100,96,82,30.27,30.18,5,0,8,0.75
2013-7-8,75.9,69.2,66.2,69.2,65.5,61.6,100,88,69,30.30,30.21,5,0,6,0.04
2013-7-9,77.2,70.1,65.8,67.7,64.5,61.1,92,83,70,30.27,30.15,3,0,6,0.00
2013-7-10,75.4,68.9,65.8,69.2,64.4,60.8,93,86,74,30.21,30.07,5,0,8,0.63
2013-7-11,72.1,68.8,66.6,69.0,65.9,63.1,93,90,85,30.09,30.01,0,0,6,0.00
2013-7-12,75.7,67.6,61.7,65.5,62.9,58.6,93,85,69,30.12,30.01,5,0,8,0.79
2013-7-13,68.9,65.3,62.2,67.3,63.5,60.2,100,94,92,30.21,30.09,3,0,8,0.04
2013-7-14,70.0,68.0,66.9,69.8,67.9,66.2,100,100,94,30.36,30.18,8,3,15,1.22
2013-7-15,73.6,68.6,66.7,73.0,67.0,61.9,100,95,76,30.42,30.36,5,1,9,0.00
2013-7-16,79.5,70.1,65.5,68.5,64.6,61.5,95,83,67,30.42,30.33,6,0,10,0.00
2013-7-17,76.6,68.6,65.3,68.6,65.2,61.1,94,89,72,30.39,30.27,5,0,11,1.34
2013-7-18,78.3,71.2,65.5,69.2,66.3,63.4,94,85,69,30.30,30.18,0,0,0,0.00
2013-7-19,76.0,70.4,67.3,68.8,66.7,63.1,93,88,72,30.24,30.12,0,0,0,0.47
2013-7-20,75.0,69.4,66.9,70.3,66.4,61.3,94,90,78,30.15,30.07,0,0,0,0.20
2013-7-21,74.7,69.1,66.7,71.4,66.1,63.2,93,90,78,30.12,30.07,0,0,0,0.55
2013-7-22,73.0,68.6,64.8,67.2,65.1,62.4,93,89,81,30.09,29.95,0,0,0,0.31
2013-7-23,73.8,67.8,64.4,66.8,63.6,60.9,94,87,70,30.01,29.92,0,0,0,0.00
2013-7-24,76.9,69.0,65.5,67.7,63.3,59.6,92,82,69,29.98,29.89,0,0,0,0.00
2013-7-25,73.6,66.5,61.7,65.1,61.6,56.8,92,84,70,30.15,29.98,0,0,0,0.00
2013-7-26,71.7,65.5,60.8,65.5,61.4,55.9,93,87,76,30.18,30.12,0,0,0,0.59
2013-7-27,69.0,67.2,64.4,66.6,64.8,62.2,93,92,91,30.12,30.07,0,0,0,1.30
2013-7-28,66.6,63.4,61.7,60.7,58.3,57.1,86,84,81,30.12,30.07,0,0,0,0.00
2013-7-29,72.0,63.5,58.5,61.1,56.0,50.1,87,77,68,30.27,30.09,0,0,0,0.00
2013-7-30,70.2,64.3,59.5,62.6,56.5,49.8,90,76,68,30.30,30.21,0,0,0,0.00
2013-7-31,66.9,63.9,60.1,64.5,61.5,57.7,94,92,89,30.27,30.07,0,0,0,0.24
2013-8-1,74.8,67.8,64.2,68.4,63.5,59.5,94,87,70,30.09,30.01,0,0,0,0.08
2013-8-2,73.0,66.9,62.1,64.2,60.9,58.4,89,81,70,30.15,30.03,0,0,0,0.00
2013-8-3,75.6,68.4,65.1,64.8,62.6,59.4,92,82,67,30.15,30.07,0,0,0,0.00
2013-8-4,76.1,68.0,62.1,64.7,60.7,53.7,92,78,67,30.12,30.07,0,0,0,0.00
2013-8-5,72.4,66.2,60.6,63.9,59.0,53.8,89,78,68,30.18,30.07,0,0,0,0.00
2013-8-6,70.7,67.4,65.5,66.7,64.3,62.2,95,90,81,30.15,30.07,0,0,0,0.00
2013-8-7,67.8,66.4,65.7,67.8,65.8,64.2,100,98,95,30.18,30.12,0,0,0,0.75
2013-8-8,71.2,68.1,64.6,71.2,68.1,64.6,100,100,100,30.18,30.12,0,0,0,0.04
2013-8-9,76.8,70.1,66.4,71.1,67.6,66.3,100,92,74,30.18,30.12,0,0,0,0.00
2013-8-10,78.8,70.2,66.4,69.8,66.1,63.3,92,87,69,30.21,30.15,0,0,0,0.04
2013-8-11,78.3,70.1,65.3,69.0,64.9,61.2,92,84,69,30.24,30.15,0,0,0,0.00
2013-8-12,77.2,69.9,65.8,68.5,65.2,63.1,92,85,69,30.18,30.09,0,0,0,0.00
2013-8-13,76.9,68.2,64.2,67.9,63.5,60.6,90,85,69,30.09,29.95,0,0,0,0.12
2013-8-14,69.8,63.2,59.2,61.4,56.5,51.0,90,79,66,30.15,29.98,0,0,0,0.00
2013-8-15,61.7,58.1,55.4,54.9,51.0,47.6,85,77,68,30.24,30.15,0,0,0,0.00
2013-8-16,66.1,59.4,55.2,56.1,52.9,48.7,88,80,67,30.24,30.15,0,0,0,0.00
2013-8-17,60.8,58.6,55.6,58.3,54.7,49.8,94,87,78,30.24,30.18,0,0,0,0.20
2013-8-18,65.8,62.2,59.5,64.4,60.7,57.8,100,95,94,30.27,30.18,0,0,0,0.28
2013-8-19,66.2,63.8,61.3,66.2,63.5,61.1,100,99,94,30.27,30.18,0,0,0,0.55
2013-8-20,71.7,65.9,61.7,67.7,63.0,60.3,95,91,82,30.27,30.18,0,0,0,0.00
2013-8-21,68.7,66.0,63.9,66.0,63.8,61.8,94,92,90,30.33,30.21,0,0,0,0.04
2013-8-22,75.6,67.8,62.4,66.3,62.8,60.7,94,85,69,30.24,30.12,0,0,0,0.00
2013-8-23,76.5,67.4,63.1,66.4,61.8,58.6,92,82,69,30.18,30.09,0,0,0,0.00
2013-8-24,72.1,64.7,58.1,61.7,58.3,50.6,93,80,66,30.36,30.18,0,0,0,0.00
2013-8-25,70.7,61.9,56.3,59.6,54.0,49.9,86,76,66,30.45,30.33,0,0,0,0.00
2013-8-26,74.4,63.5,56.3,62.7,56.8,52.8,89,79,67,30.39,30.21,0,0,0,0.00
2013-8-27,77.4,67.6,62.4,66.6,61.2,57.9,89,80,69,30.21,30.12,0,0,0,0.00
2013-8-28,77.4,69.5,66.2,67.8,64.0,61.2,89,83,72,30.15,30.03,0,0,0,0.00
2013-8-29,81.1,71.8,67.5,69.6,65.1,62.3,89,80,68,30.12,30.01,0,0,0,0.00
2013-8-30,70.7,67.8,66.0,68.7,65.4,64.1,95,92,87,30.15,30.07,0,0,0,0.20
2013-8-31,75.7,69.1,65.1,69.8,65.9,63.3,94,90,79,30.07,30.01,0,0,0,0.00
2013-9-1,78.6,69.3,64.9,70.8,65.1,62.2,92,87,69,30.03,29.95,0,0,0,0.12
2013-9-2,77.9,69.1,63.5,68.1,64.0,61.1,93,84,69,30.03,29.95,0,0,0,0.00
2013-9-3,76.1,66.0,60.3,65.2,60.7,55.8,92,83,67,30.09,29.95,0,0,0,0.20
2013-9-4,75.2,66.0,59.9,64.4,59.6,55.7,86,80,69,30.21,30.09,0,0,0,0.00
2013-9-5,74.3,64.8,59.7,62.6,56.6,51.0,88,75,66,30.24,30.18,0,0,0,0.00
2013-9-6,73.6,64.6,58.5,62.0,56.8,51.1,88,76,67,30.27,30.18,0,0,0,0.00
2013-9-7,74.3,64.1,58.6,63.9,59.1,56.1,93,84,70,30.21,30.09,0,0,0,0.00
2013-9-8,75.2,66.7,61.2,65.7,61.0,57.1,92,82,68,30.12,30.07,0,0,0,0.00
2013-9-9,77.1,68.4,63.7,66.7,62.1,59.3,88,80,67,30.24,30.12,0,0,0,0.00
2013-9-10,78.9,69.3,63.3,67.8,62.6,58.8,92,80,67,30.33,30.24,0,0,0,0.00
2013-9-11,80.6,68.6,63.7,69.1,63.1,58.4,93,83,68,30.30,30.18,0,0,0,1.06
2013-9-12,77.7,68.4,63.3,68.4,63.8,58.8,94,85,69,30.18,29.98,0,0,0,0.04
2013-9-13,72.1,63.0,53.7,61.0,55.6,44.0,91,77,66,29.98,29.92,0,0,0,0.00
2013-9-14,67.3,56.8,48.7,55.5,48.6,41.8,85,74,66,30.18,29.98,0,0,0,0.00
2013-9-15,67.3,59.8,53.8,58.8,54.1,49.4,91,82,69,30.27,30.18,0,0,0,0.00
2013-9-16,75.0,63.7,56.3,63.3,56.5,50.4,92,78,67,30.24,30.15,0,0,0,0.00
2013-9-17,61.0,57.6,54.4,55.8,51.1,46.4,85,79,68,30.36,30.24,0,0,0,0.00
2013-9-18,58.6,55.5,51.8,56.6,51.5,47.4,93,86,77,30.30,30.21,0,0,0,0.00
2013-9-19,69.6,62.3,57.6,64.9,59.0,55.4,94,89,76,30.24,30.18,0,0,0,0.00
2013-9-20,77.4,66.3,60.4,65.5,60.9,58.4,94,84,67,30.18,30.03,0,0,0,0.00
2013-9-21,65.1,61.5,56.8,62.8,60.6,56.8,100,97,89,30.03,29.83,0,0,0,0.55
2013-9-22,69.8,58.2,52.2,57.9,51.7,46.2,100,80,66,30.01,29.83,0,0,0,0.00
2013-9-23,65.7,57.0,51.6,55.6,51.4,46.8,89,82,69,30.12,30.01,0,0,0,0.00
2013-9-24,70.5,60.4,53.5,59.4,55.0,50.7,92,83,68,30.12,30.03,0,0,0,0.00
2013-9-25,59.7,57.5,54.3,56.5,55.6,52.7,95,93,89,30.03,29.95,0,0,0,0.35
2013-9-26,62.8,56.5,52.2,57.5,53.4,50.4,95,89,78,30.12,29.98,0,0,0,0.00
2013-9-27,69.2,58.3,51.1,58.6,51.6,47.5,89,79,66,30.24,30.12,0,0,0,0.00
2013-9-28,60.4,56.2,51.8,54.6,50.5,47.2,86,81,73,30.30,30.21,0,0,2,0.00
2013-9-29,65.5,56.7,50.0,54.8,50.4,45.8,89,80,67,30.21,30.09,0,0,2,0.00
2013-9-30,68.5,58.2,52.3,57.9,52.6,49.1,90,82,67,30.15,30.07,0,0,2,0.00
2013-10-1,68.9,58.6,54.3,58.3,53.5,51.6,91,84,69,30.21,30.12,0,0,2,0.00
2013-10-2,78.9,64.1,54.8,61.3,56.2,53.1,95,77,47,30.22,30.14,3,1,12,0.00
2013-10-3,71.4,63.7,59.0,63.3,57.9,54.9,89,82,64,30.18,30.13,5,1,9,0.00
2013-10-4,82.3,65.5,58.4,62.8,58.9,56.6,95,80,49,30.21,30.14,5,1,10,0.00
2013-10-5,76.9,66.6,60.1,64.2,60.2,57.8,93,81,58,30.19,30.09,6,2,12,0.00
2013-10-6,70.5,63.6,59.4,63.4,60.1,57.9,95,89,75,30.10,29.94,6,2,13,0.00
2013-10-7,68.6,58.1,49.5,61.9,54.5,45.8,100,88,66,30.08,29.84,6,2,15,1.61
2013-10-8,60.0,50.9,45.2,49.7,44.1,37.3,91,78,61,30.32,30.08,7,2,15,0.00
2013-10-9,71.6,52.6,44.0,50.8,42.4,36.5,91,69,44,30.34,30.23,5,1,9,0.00
2013-10-10,73.6,57.6,48.0,53.6,47.2,41.4,91,69,47,30.24,30.08,5,2,13,0.00
2013-10-11,74.7,60.1,52.6,55.2,50.8,47.7,89,73,41,30.08,30.00,5,2,13,0.00
2013-10-12,72.7,59.7,54.2,59.2,53.8,48.2,96,81,55,30.16,30.03,5,1,12,0.00
2013-10-13,63.3,58.7,55.9,60.9,57.2,54.7,99,95,85,30.28,30.15,3,1,6,1.04
2013-10-14,58.2,56.1,53.4,57.5,55.6,53.1,99,98,91,30.31,30.17,3,1,8,0.08
2013-10-15,58.3,53.3,50.4,56.4,52.7,50.1,100,98,91,30.22,30.08,3,1,6,0.01
2013-10-16,62.8,55.1,49.1,56.8,52.7,48.0,97,92,79,30.09,29.96,5,1,9,0.00
2013-10-17,59.7,56.7,51.9,59.7,56.1,51.6,100,98,93,29.98,29.83,3,0,10,0.10
2013-10-18,63.4,52.3,43.6,54.2,49.0,42.3,99,89,66,30.03,29.87,6,2,12,0.00
2013-10-19,57.8,52.0,46.4,53.9,49.1,40.4,100,91,59,29.97,29.84,6,1,15,0.00
2013-10-20,58.2,46.5,37.0,43.3,39.4,34.6,95,78,49,30.12,29.92,6,2,12,0.00
2013-10-21,58.5,49.3,42.2,50.6,45.3,40.0,93,87,71,30.14,30.01,6,2,12,0.00
2013-10-22,69.2,54.1,48.8,48.7,45.9,40.8,92,75,43,30.02,29.77,6,1,12,0.00
2013-10-23,56.1,43.7,33.0,44.2,35.5,27.2,90,74,48,30.01,29.69,9,2,16,0.00
2013-10-24,47.1,36.7,29.9,35.3,30.3,25.1,89,78,60,30.21,30.01,5,1,13,0.00
2013-10-25,42.7,32.8,26.2,33.0,25.9,21.4,92,76,53,30.41,30.21,7,2,20,0.00
2013-10-26,50.1,38.7,27.8,43.9,29.2,23.0,85,70,48,30.40,30.11,6,2,12,0.00
2013-10-27,62.7,50.2,40.1,46.9,41.4,36.1,91,73,48,30.14,30.07,6,1,12,0.00
2013-10-28,56.3,52.0,48.6,51.9,48.6,46.7,95,88,80,30.26,30.10,3,1,6,0.00
2013-10-29,65.0,54.0,48.1,51.8,48.4,46.8,96,82,59,30.34,30.24,7,2,12,0.00
2013-10-30,73.1,59.0,53.7,54.4,51.0,47.6,92,76,51,30.27,30.16,5,1,8,0.00
2013-10-31,58.4,55.5,53.4,56.2,53.1,51.5,99,92,86,30.16,29.82,8,2,14,0.08
2013-11-1,70.7,58.6,48.5,58.5,54.1,42.6,100,86,59,29.82,29.62,8,3,20,0.12
2013-11-2,62.0,47.7,39.8,43.8,38.7,33.9,84,72,44,29.98,29.70,9,2,14,0.01
2013-11-3,59.3,43.0,35.3,37.0,32.8,28.2,90,69,39,30.38,29.95,6,2,14,0.00
2013-11-4,49.3,40.4,35.7,30.8,28.1,24.0,75,62,44,30.53,30.38,7,2,13,0.00
2013-11-5,50.4,40.3,31.9,43.1,32.1,22.9,92,73,39,30.57,30.47,6,1,10,0.00
2013-11-6,57.7,49.4,43.4,50.5,47.4,41.5,100,93,74,30.47,30.14,6,1,10,0.03
2013-11-7,58.8,47.0,34.4,54.2,42.5,28.4,100,85,63,30.14,29.98,6,2,13,0.04
2013-11-8,53.5,38.3,29.7,28.6,22.9,17.3,83,57,29,30.34,30.08,8,2,16,0.00
2013-11-9,49.8,40.6,33.1,28.9,23.3,14.3,64,51,29,30.38,30.23,6,1,12,0.00
2013-11-10,65.7,48.6,37.8,38.5,26.2,11.1,64,43,24,30.25,30.15,7,2,16,0.00
2013-11-11,53.6,44.8,36.5,26.4,19.0,-6.5,61,37,12,30.33,30.16,8,3,15,0.00
2013-11-12,55.6,37.7,19.0,36.7,22.8,12.6,81,58,28,30.42,30.05,7,2,14,0.00
2013-11-13,48.5,28.5,17.7,19.7,14.4,11.3,82,59,29,30.60,30.40,9,3,22,0.00
2013-11-14,61.5,41.9,31.1,19.3,13.3,6.6,50,33,16,30.53,30.33,8,2,15,0.00
2013-11-15,48.6,43.7,37.7,45.6,27.2,5.2,100,60,22,30.33,30.22,3,1,7,0.13
2013-11-16,49.5,46.1,44.2,49.5,46.1,44.2,100,100,100,30.29,30.21,5,1,8,0.01
2013-11-17,55.8,50.6,48.1,55.8,50.6,48.1,100,100,100,30.24,29.89,5,1,10,0.42
2013-11-18,69.8,51.8,37.4,56.8,42.0,27.8,100,72,32,29.96,29.85,7,2,14,0.06
2013-11-19,56.0,40.0,30.8,28.1,22.9,16.6,77,53,22,30.29,29.93,9,3,23,0.00
2013-11-20,42.7,34.6,28.3,27.5,24.7,22.3,83,68,49,30.50,30.29,7,2,14,0.00
2013-11-21,48.4,41.3,32.7,47.6,39.1,26.3,100,92,76,30.55,30.44,3,1,6,0.12
2013-11-22,56.4,51.8,45.7,55.1,51.4,45.6,100,99,93,30.44,30.12,5,1,10,0.04
2013-11-23,51.6,41.1,26.3,51.6,37.5,19.6,100,88,66,30.17,30.05,6,2,15,0.00
2013-11-24,33.6,22.6,15.0,20.0,8.2,0.4,80,56,31,30.54,30.16,7,3,16,0.00
2013-11-25,27.1,22.8,18.2,22.9,8.6,0.7,91,55,43,30.58,30.41,3,1,6,0.00
2013-11-26,45.6,38.0,24.7,45.6,37.8,22.4,100,99,90,30.41,29.65,6,1,13,2.68
2013-11-27,40.6,25.6,15.9,39.8,23.8,13.0,97,93,84,30.18,29.58,14,5,32,0.05
2013-11-28,43.6,27.6,15.4,25.9,18.3,12.6,91,70,43,30.52,30.18,5,2,13,0.05
2013-11-29,58.5,37.4,28.8,26.3,19.5,12.4,69,50,23,30.60,30.49,9,2,14,0.00
2013-11-30,39.2,30.2,24.7,23.6,21.2,19.8,86,69,50,30.61,30.42,6,1,9,0.00
2013-12-1,59.7,42.0,28.8,37.7,29.3,19.8,76,61,43,30.42,30.02,6,2,12,0.00
2013-12-2,51.7,42.2,37.4,35.2,33.3,28.8,82,71,54,30.02,29.83,5,2,9,0.00
2013-12-3,57.1,44.9,40.0,45.7,42.1,34.7,100,90,61,29.95,29.86,6,2,9,0.00
2013-12-4,51.0,47.9,45.7,51.0,47.9,45.7,100,100,100,30.08,29.95,3,1,7,0.05
2013-12-5,58.4,54.5,51.0,58.4,54.5,51.0,100,100,100,30.10,29.99,3,1,7,0.29
2013-12-6,60.9,58.9,51.2,60.9,58.9,51.2,100,100,100,29.99,29.90,6,2,15,0.33
2013-12-7,53.1,43.1,34.4,53.1,41.7,34.4,100,95,81,30.36,29.94,9,3,20,0.01
2013-12-8,34.4,29.8,27.4,34.4,29.8,27.4,100,100,100,30.36,30.26,7,1,14,0.11
2013-12-9,53.3,44.0,28.0,52.9,44.0,28.0,100,100,100,30.28,30.03,10,2,17,0.12
2013-12-10,44.5,35.5,24.2,44.5,33.3,17.6,100,92,73,30.28,29.88,7,2,14,0.25
2013-12-11,55.3,34.3,24.0,25.3,15.4,5.8,79,49,19,30.47,30.28,8,3,15,0.00
2013-12-12,45.2,28.1,21.1,20.6,13.9,5.3,83,58,26,30.42,30.26,8,3,20,0.00
2013-12-13,44.7,33.7,24.6,22.1,14.2,6.8,60,45,30,30.41,30.31,8,2,14,0.00
2013-12-14,42.8,35.0,31.4,42.0,30.7,21.4,100,86,58,30.32,29.81,6,1,8,0.69
2013-12-15,43.4,33.0,25.1,42.1,30.6,23.4,99,91,69,30.10,29.75,8,2,26,0.03
2013-12-16,54.5,38.1,24.7,33.6,26.1,23.2,95,65,37,30.21,30.10,6,2,18,0.00
2013-12-17,59.7,43.0,31.2,37.1,29.1,20.4,88,60,32,30.16,29.93,8,2,14,0.00
2013-12-18,47.9,33.9,23.4,20.9,14.1,5.1,78,47,19,30.33,30.00,7,3,15,0.00
2013-12-19,59.8,47.2,37.3,27.0,21.4,11.5,49,36,24,30.33,30.19,5,1,8,0.00
2013-12-20,56.2,47.3,39.3,44.6,28.0,15.4,81,49,29,30.21,30.12,5,1,8,0.00
2013-12-21,56.7,52.3,47.9,56.7,50.8,43.4,100,95,79,30.14,29.96,8,2,16,0.46
2013-12-22,57.8,54.1,51.4,57.8,54.1,51.4,100,100,100,30.04,29.94,8,2,20,2.74
2013-12-23,54.1,43.1,28.2,54.1,42.6,26.4,100,98,93,30.15,29.96,7,3,20,0.24
2013-12-24,33.7,25.1,18.5,30.8,21.1,10.7,95,85,66,30.46,30.14,8,3,20,0.00
2013-12-25,31.5,23.4,18.8,15.6,10.5,0.3,86,58,39,30.57,30.43,6,2,12,0.00
2013-12-26,52.5,33.8,22.0,26.5,19.9,9.9,70,58,35,30.43,30.32,9,3,20,0.00
2013-12-27,50.8,36.2,28.2,25.6,20.7,15.2,70,54,32,30.49,30.38,5,2,9,0.00
2013-12-28,49.9,41.7,36.0,39.6,24.6,12.4,100,54,26,30.44,30.12,8,2,13,0.33
2013-12-29,49.8,39.3,34.1,46.2,37.9,31.9,100,95,83,30.12,29.78,9,2,18,0.66
2013-12-30,42.9,37.0,32.4,37.7,32.9,20.6,92,85,60,30.15,29.93,7,3,20,0.00
2013-12-31,45.0,31.7,25.4,24.4,19.0,13.4,85,60,39,30.41,30.12,5,2,15,0.00
2014-1-1,39.8,33.7,30.4,26.5,20.1,12.4,84,59,40,30.41,30.16,5,2,10,0.00
2014-1-2,43.4,34.1,13.6,41.1,29.3,11.7,96,83,59,30.16,29.61,12,2,23,0.05